Weitere Informationen folgen in Kürze ...

Flugwetter Augsburg

[source: ADDS]
METAR
EDMA 300420Z AUTO 25008KT 9999 // BKN033/// BKN041/// OVC120/// 11/09 Q1023 =
TAF EDMA 291700Z 2918/3003 24006KT 9999 OVC030 TEMPO 3000/3003 RA BKN014
TAF
TAF EDMA 291700Z 2918/3003 24006KT 9999 OVC030 TEMPO 3000/3003 RA BKN014 =
Cookies erleichtern die Bereitstellung unserer Dienste. Mit der Nutzung unserer Dienste erklären Sie sich damit einverstanden, dass wir Cookies verwenden.
Weitere Informationen Ok